createdAt,value
2018-11-06T00:03:14.341Z,86.78
2018-11-06T00:05:42.088Z,86.82
2018-11-06T00:08:10.426Z,86.83
2018-11-06T00:10:38.757Z,87.03
2018-11-06T00:13:07.093Z,87.11
2018-11-06T00:15:36.005Z,87.05
2018-11-06T00:18:03.751Z,87.06
2018-11-06T00:20:32.670Z,86.86
2018-11-06T00:23:01.010Z,86.83
2018-11-06T00:25:28.750Z,86.87
2018-11-06T00:27:57.674Z,86.99
2018-11-06T00:30:26.013Z,87.18
2018-11-06T00:32:53.759Z,87.24
2018-11-06T00:35:22.094Z,87.44
2018-11-06T00:37:51.017Z,87.40
2018-11-06T00:40:18.756Z,87.70
2018-11-06T00:42:47.092Z,87.82
2018-11-06T00:45:16.007Z,88.08
2018-11-06T00:47:44.344Z,88.17
2018-11-06T00:50:12.666Z,88.09
2018-11-06T00:52:41.002Z,88.17
2018-11-06T00:55:08.760Z,88.39
2018-11-06T00:57:37.668Z,88.34
2018-11-06T01:00:05.415Z,88.38
2018-11-06T01:02:33.741Z,88.57
2018-11-06T01:05:02.121Z,88.71
2018-11-06T01:07:30.408Z,88.60
2018-11-06T01:09:58.743Z,88.81
2018-11-06T01:12:27.071Z,89.10
2018-11-06T01:14:55.394Z,89.38
2018-11-06T01:17:24.303Z,89.49
2018-11-06T01:19:52.051Z,89.66
2018-11-06T01:22:20.973Z,89.73
2018-11-06T01:24:49.303Z,89.80
2018-11-06T01:27:17.630Z,89.95
2018-11-06T01:29:45.384Z,90.05
2018-11-06T01:32:14.303Z,90.10
2018-11-06T01:34:42.049Z,90.07
2018-11-06T01:37:10.388Z,89.95
2018-11-06T01:39:38.715Z,90.01
2018-11-06T01:42:07.050Z,90.03
2018-11-06T01:44:35.377Z,89.94
2018-11-06T01:47:03.715Z,89.88
2018-11-06T01:49:32.646Z,90.05
2018-11-06T01:52:00.381Z,89.96
2018-11-06T01:54:28.708Z,89.95
2018-11-06T01:56:57.067Z,89.86
2018-11-06T01:59:25.980Z,89.79
2018-11-06T02:01:54.313Z,89.79
2018-11-06T02:04:22.656Z,89.71
2018-11-06T02:06:50.404Z,89.52
2018-11-06T02:09:18.735Z,89.38
2018-11-06T02:11:47.645Z,89.30
2018-11-06T02:14:15.396Z,89.21
2018-11-06T02:16:43.734Z,89.40
2018-11-06T02:19:12.663Z,89.35
2018-11-06T02:21:40.998Z,89.14
2018-11-06T02:24:08.748Z,88.93
2018-11-06T02:26:37.185Z,88.83
2018-11-06T02:29:05.405Z,88.71
2018-11-06T02:31:34.321Z,88.67
2018-11-06T02:34:02.648Z,88.66
2018-11-06T02:36:30.401Z,88.77
2018-11-06T02:38:58.741Z,88.88
2018-11-06T02:41:27.656Z,88.88
2018-11-06T02:43:55.409Z,88.83
2018-11-06T02:46:24.318Z,89.18
2018-11-06T02:48:52.071Z,89.31
2018-11-06T02:51:20.984Z,89.46
2018-11-06T02:53:48.737Z,89.68
2018-11-06T02:56:17.070Z,89.78
2018-11-06T02:58:46.016Z,90.03
2018-11-06T03:01:14.348Z,90.15
2018-11-06T03:03:42.093Z,90.16
2018-11-06T03:06:10.423Z,90.02
2018-11-06T03:08:39.350Z,89.92
2018-11-06T03:11:07.689Z,89.93
2018-11-06T03:13:36.017Z,89.90
2018-11-06T03:16:04.352Z,89.71
2018-11-06T03:18:32.683Z,89.78
2018-11-06T03:21:01.013Z,89.83
2018-11-06T03:23:28.765Z,89.84
2018-11-06T03:25:57.097Z,89.81
2018-11-06T03:28:26.007Z,89.83
2018-11-06T03:30:53.757Z,89.80
2018-11-06T03:33:22.672Z,89.84
2018-11-06T03:35:50.420Z,89.80
2018-11-06T03:38:19.324Z,89.76
2018-11-06T03:40:47.652Z,89.46
2018-11-06T03:43:15.992Z,89.69
2018-11-06T03:45:43.743Z,89.77
2018-11-06T03:48:12.646Z,89.75
2018-11-06T03:50:40.388Z,89.71
2018-11-06T03:53:08.717Z,89.57
2018-11-06T03:55:37.039Z,89.61
2018-11-06T03:58:05.380Z,89.72
2018-11-06T04:00:34.295Z,89.66
2018-11-06T04:03:02.578Z,89.61
2018-11-06T04:05:30.364Z,89.51
2018-11-06T04:07:58.695Z,89.37
2018-11-06T04:10:27.596Z,89.52
2018-11-06T04:12:55.344Z,89.45
2018-11-06T04:15:23.670Z,89.37
2018-11-06T04:17:52.571Z,89.26
2018-11-06T04:20:20.893Z,89.25
2018-11-06T04:22:49.216Z,89.11
2018-11-06T04:25:17.538Z,88.97
2018-11-06T04:27:45.633Z,88.70
2018-11-06T04:30:13.623Z,88.58
2018-11-06T04:32:41.952Z,88.60
2018-11-06T04:35:11.084Z,89.00
2018-11-06T04:37:38.599Z,88.76
2018-11-06T04:40:06.924Z,88.95
2018-11-06T04:42:35.476Z,88.89
2018-11-06T04:45:04.177Z,88.76
2018-11-06T04:47:32.503Z,88.64
2018-11-06T04:50:00.261Z,88.53
2018-11-06T04:52:29.169Z,88.27
2018-11-06T04:54:57.496Z,88.28
2018-11-06T04:57:25.243Z,88.37
2018-11-06T04:59:53.572Z,88.23
2018-11-06T05:02:22.514Z,87.96
2018-11-06T05:04:50.852Z,88.00
2018-11-06T05:07:19.182Z,87.91
2018-11-06T05:09:47.521Z,87.77
2018-11-06T05:12:16.190Z,87.82
2018-11-06T05:14:43.955Z,87.81
2018-11-06T05:17:12.852Z,87.99
2018-11-06T05:19:41.173Z,88.01
2018-11-06T05:22:08.934Z,88.04
2018-11-06T05:24:37.299Z,88.15
2018-11-06T05:27:05.632Z,88.09
2018-11-06T05:29:33.921Z,88.36
2018-11-06T05:32:02.822Z,88.51
2018-11-06T05:34:30.573Z,88.62
2018-11-06T05:36:59.479Z,88.43
2018-11-06T05:39:27.875Z,88.71
2018-11-06T05:41:55.554Z,88.97
2018-11-06T05:44:24.473Z,89.11
2018-11-06T05:46:52.833Z,89.22
2018-11-06T05:49:20.583Z,89.18
2018-11-06T05:51:48.911Z,89.15
2018-11-06T05:54:17.845Z,89.14
2018-11-06T05:56:46.168Z,88.95
2018-11-06T05:59:13.926Z,89.11
2018-11-06T06:01:42.848Z,89.32
2018-11-06T06:04:11.459Z,89.46
2018-11-06T06:06:39.812Z,89.31
2018-11-06T06:09:07.690Z,89.36
2018-11-06T06:11:36.521Z,89.30
2018-11-06T06:14:04.265Z,89.25
2018-11-06T06:16:33.476Z,89.26
2018-11-06T06:19:01.800Z,89.18
2018-11-06T06:21:29.553Z,89.04
2018-11-06T06:23:58.470Z,88.83
2018-11-06T06:26:27.631Z,88.69
2018-11-06T06:28:55.447Z,88.61
2018-11-06T06:31:23.775Z,88.53
2018-11-06T06:33:52.111Z,88.46
2018-11-06T06:36:20.454Z,88.27
2018-11-06T06:38:48.240Z,88.14
2018-11-06T06:41:16.536Z,88.03
2018-11-06T06:43:44.886Z,88.06
2018-11-06T06:46:14.193Z,88.27
2018-11-06T06:48:42.467Z,88.27
2018-11-06T06:51:10.806Z,88.56
2018-11-06T06:53:39.121Z,88.51
2018-11-06T06:56:07.454Z,88.64
2018-11-06T06:58:35.784Z,88.67
2018-11-06T07:01:03.531Z,88.77
2018-11-06T07:03:31.860Z,88.77
2018-11-06T07:06:00.795Z,88.88
2018-11-06T07:08:28.539Z,88.89
2018-11-06T07:10:56.869Z,88.88
2018-11-06T07:13:25.782Z,88.86
2018-11-06T07:15:53.643Z,88.93
2018-11-06T07:18:22.676Z,88.86
2018-11-06T07:20:50.180Z,88.69
2018-11-06T07:23:19.087Z,88.71
2018-11-06T07:25:47.409Z,88.73
2018-11-06T07:28:15.748Z,88.79
2018-11-06T07:30:43.497Z,88.79
2018-11-06T07:33:12.409Z,88.65
2018-11-06T07:35:40.343Z,88.62
2018-11-06T07:38:08.483Z,88.63
2018-11-06T07:40:37.525Z,88.67
2018-11-06T07:43:05.148Z,88.43
2018-11-06T07:45:34.052Z,88.27
2018-11-06T07:48:02.404Z,88.10
2018-11-06T07:50:30.278Z,87.92
2018-11-06T07:52:58.482Z,87.83
2018-11-06T07:55:27.421Z,87.67
2018-11-06T07:57:55.757Z,87.66
2018-11-06T08:00:24.081Z,87.48
2018-11-06T08:02:52.416Z,87.28
2018-11-06T08:05:20.974Z,87.14
2018-11-06T08:07:48.614Z,87.01
2018-11-06T08:10:16.940Z,86.74
2018-11-06T08:12:45.842Z,86.47
2018-11-06T08:15:13.655Z,86.24
2018-11-06T08:17:41.925Z,85.93
2018-11-06T08:20:11.315Z,85.75
2018-11-06T08:22:39.052Z,85.56
2018-11-06T08:25:07.957Z,85.35
2018-11-06T08:27:36.315Z,85.15
2018-11-06T08:30:04.024Z,85.06
2018-11-06T08:32:33.213Z,84.74
2018-11-06T08:35:01.461Z,84.63
2018-11-06T08:37:29.789Z,84.12
2018-11-06T08:39:58.117Z,83.89
2018-11-06T08:42:27.095Z,83.60
2018-11-06T08:44:55.355Z,83.43
2018-11-06T08:47:23.681Z,83.17
2018-11-06T08:49:52.012Z,82.99
2018-11-06T08:52:20.334Z,82.65
2018-11-06T08:54:48.677Z,82.12
2018-11-06T08:57:16.993Z,81.72
2018-11-06T08:59:45.335Z,81.64
2018-11-06T09:02:13.658Z,81.50
2018-11-06T09:04:41.987Z,81.22
2018-11-06T09:07:10.326Z,80.83
2018-11-06T09:09:38.120Z,80.46
2018-11-06T09:12:07.029Z,80.16
2018-11-06T09:14:35.353Z,79.85
2018-11-06T09:17:03.715Z,79.68
2018-11-06T09:19:32.007Z,79.53
2018-11-06T09:22:00.376Z,79.28
2018-11-06T09:24:28.125Z,79.15
2018-11-06T09:26:56.453Z,78.72
2018-11-06T09:29:25.364Z,78.57
2018-11-06T09:31:53.691Z,78.47
2018-11-06T09:34:22.089Z,78.21
2018-11-06T09:36:50.434Z,77.89
2018-11-06T09:39:18.182Z,77.71
2018-11-06T09:41:46.514Z,77.49
2018-11-06T09:44:15.422Z,77.22
2018-11-06T09:46:43.749Z,77.07
2018-11-06T09:49:11.497Z,76.73
2018-11-06T09:51:39.821Z,76.55
2018-11-06T09:54:08.726Z,76.15
2018-11-06T09:56:37.056Z,76.00
2018-11-06T09:59:04.804Z,75.72
2018-11-06T10:01:33.131Z,75.15
2018-11-06T10:04:02.051Z,74.83
2018-11-06T10:06:29.894Z,74.28
2018-11-06T10:08:58.711Z,74.16
2018-11-06T10:11:27.253Z,73.75
2018-11-06T10:13:55.410Z,73.43
2018-11-06T10:16:23.156Z,73.13
2018-11-06T10:18:51.487Z,73.08
2018-11-06T10:21:19.828Z,72.62
2018-11-06T10:23:48.243Z,72.85
2018-11-06T10:26:17.154Z,72.46
2018-11-06T10:28:44.896Z,72.14
2018-11-06T10:31:13.812Z,71.59
2018-11-06T10:33:42.136Z,71.58
2018-11-06T10:36:10.472Z,71.42
2018-11-06T10:38:38.224Z,70.77
2018-11-06T10:41:06.551Z,70.55
2018-11-06T10:43:34.899Z,70.12
2018-11-06T10:46:03.800Z,69.92
2018-11-06T10:48:31.557Z,70.06
2018-11-06T10:51:00.471Z,70.11
2018-11-06T10:53:28.793Z,69.72
2018-11-06T10:55:56.533Z,69.53
2018-11-06T10:58:25.457Z,68.97
2018-11-06T11:00:53.775Z,68.09
2018-11-06T11:03:22.101Z,67.27
2018-11-06T11:05:50.431Z,66.41
2018-11-06T11:08:18.754Z,65.79
2018-11-06T11:10:46.508Z,65.39
2018-11-06T11:13:14.880Z,65.09
2018-11-06T11:15:43.262Z,64.77
2018-11-06T11:18:12.181Z,64.52
2018-11-06T11:20:40.545Z,63.92
2018-11-06T11:23:08.844Z,63.86
2018-11-06T11:25:36.662Z,63.41
2018-11-06T11:28:05.516Z,63.34
2018-11-06T11:30:33.265Z,62.79
2018-11-06T11:33:02.168Z,62.44
2018-11-06T11:35:29.918Z,62.14
2018-11-06T11:37:58.833Z,62.08
2018-11-06T11:40:27.154Z,61.59
2018-11-06T11:42:55.479Z,61.25
2018-11-06T11:45:23.232Z,60.77
2018-11-06T11:47:51.576Z,60.39
2018-11-06T11:50:19.911Z,59.58
2018-11-06T11:52:48.822Z,59.17
2018-11-06T11:55:16.572Z,58.64
2018-11-06T11:57:44.906Z,58.14
2018-11-06T12:00:13.336Z,58.06
2018-11-06T12:02:41.596Z,57.04
2018-11-06T12:05:09.937Z,57.27
2018-11-06T12:07:39.079Z,56.84
2018-11-06T12:10:07.195Z,56.03
2018-11-06T12:12:35.525Z,55.71
2018-11-06T12:15:03.746Z,54.98
2018-11-06T12:17:32.364Z,53.99
2018-11-06T12:20:00.690Z,53.81
2018-11-06T12:22:29.027Z,53.90
2018-11-06T12:24:56.832Z,53.92
2018-11-06T12:27:25.697Z,53.71
2018-11-06T12:29:54.039Z,52.82
2018-11-06T12:32:22.384Z,52.20
2018-11-06T12:34:50.727Z,51.87
2018-11-06T12:37:18.528Z,50.87
2018-11-06T12:39:47.427Z,50.30
2018-11-06T12:42:15.175Z,50.79
2018-11-06T12:44:44.079Z,50.37
2018-11-06T12:47:11.835Z,50.65
2018-11-06T12:49:40.769Z,49.89
2018-11-06T12:52:09.089Z,50.00
2018-11-06T12:54:37.409Z,50.55
2018-11-06T12:57:05.157Z,50.44
2018-11-06T12:59:34.323Z,49.93
2018-11-06T13:02:02.098Z,50.01
2018-11-06T13:04:30.427Z,50.23
2018-11-06T13:06:58.757Z,49.84
2018-11-06T13:09:27.089Z,49.74
2018-11-06T13:11:56.006Z,49.07
2018-11-06T13:14:24.378Z,48.63
2018-11-06T13:16:52.711Z,48.39
2018-11-06T13:19:20.453Z,48.09
2018-11-06T13:21:49.351Z,47.93
2018-11-06T13:24:17.695Z,48.52
2018-11-06T13:26:46.014Z,48.11
2018-11-06T13:29:14.923Z,48.42
2018-11-06T13:31:42.669Z,48.03
2018-11-06T13:34:11.582Z,47.85
2018-11-06T13:36:39.921Z,47.92
2018-11-06T13:39:08.250Z,47.43
2018-11-06T13:41:36.574Z,48.13
2018-11-06T13:44:05.063Z,47.95
2018-11-06T13:46:33.233Z,47.65
2018-11-06T13:49:01.567Z,47.55
2018-11-06T13:51:29.896Z,47.54
2018-11-06T13:53:57.648Z,47.30
2018-11-06T13:56:26.547Z,47.58
2018-11-06T13:58:54.289Z,47.16
2018-11-06T14:01:23.206Z,47.23
2018-11-06T14:03:51.551Z,47.44
2018-11-06T14:06:19.882Z,46.91
2018-11-06T14:08:47.632Z,47.04
2018-11-06T14:11:15.978Z,47.42
2018-11-06T14:13:44.895Z,47.38
2018-11-06T14:16:12.644Z,47.16
2018-11-06T14:18:41.580Z,47.30
2018-11-06T14:21:09.945Z,47.67
2018-11-06T14:23:37.653Z,48.06
2018-11-06T14:26:06.565Z,48.66
2018-11-06T14:28:34.319Z,49.39
2018-11-06T14:31:02.676Z,50.00
2018-11-06T14:33:31.581Z,50.65
2018-11-06T14:36:00.017Z,51.42
2018-11-06T14:38:28.266Z,52.16
2018-11-06T14:40:56.591Z,52.75
2018-11-06T14:43:24.944Z,53.54
2018-11-06T14:45:53.506Z,54.27
2018-11-06T14:48:21.136Z,55.13
2018-11-06T14:50:49.975Z,55.63
2018-11-06T14:53:18.304Z,56.10
2018-11-06T14:55:46.685Z,56.65
2018-11-06T14:58:14.960Z,57.58
2018-11-06T15:00:43.297Z,58.02
2018-11-06T15:03:11.326Z,58.37
2018-11-06T15:05:40.302Z,59.10
2018-11-06T15:08:07.996Z,59.49
2018-11-06T15:10:36.911Z,59.82
2018-11-06T15:13:05.239Z,60.24
2018-11-06T15:15:33.581Z,60.63
2018-11-06T15:18:01.910Z,61.01
2018-11-06T15:20:29.746Z,61.50
2018-11-06T15:22:58.840Z,61.92
2018-11-06T15:25:26.365Z,62.32
2018-11-06T15:27:54.691Z,62.85
2018-11-06T15:30:23.604Z,63.14
2018-11-06T15:32:52.593Z,63.56
2018-11-06T15:35:20.333Z,63.78
2018-11-06T15:37:49.237Z,63.98
2018-11-06T15:40:16.986Z,64.15
2018-11-06T15:42:45.898Z,64.43
2018-11-06T15:45:13.652Z,64.81
2018-11-06T15:47:42.562Z,65.08
2018-11-06T15:50:10.898Z,65.40
2018-11-06T15:52:39.241Z,65.82
2018-11-06T15:55:08.168Z,66.09
2018-11-06T15:57:36.504Z,66.39
2018-11-06T16:00:04.845Z,66.71
2018-11-06T16:02:32.598Z,66.94
2018-11-06T16:05:01.515Z,67.73
2018-11-06T16:07:29.267Z,68.07
2018-11-06T16:09:57.601Z,68.39
2018-11-06T16:12:25.929Z,68.62
2018-11-06T16:14:54.856Z,68.82
2018-11-06T16:17:22.611Z,69.06
2018-11-06T16:19:52.047Z,69.25
2018-11-06T16:22:20.822Z,69.51
2018-11-06T16:24:49.164Z,69.77
2018-11-06T16:27:16.915Z,69.96
2018-11-06T16:29:45.875Z,70.10
2018-11-06T16:32:13.592Z,70.41
2018-11-06T16:34:42.514Z,70.64
2018-11-06T16:37:10.354Z,70.71
2018-11-06T16:39:39.235Z,71.19
2018-11-06T16:42:07.559Z,71.63
2018-11-06T16:44:35.936Z,72.18
2018-11-06T16:47:04.375Z,72.51
2018-11-06T16:49:32.731Z,72.90
2018-11-06T16:52:01.147Z,73.14
2018-11-06T16:54:29.505Z,73.29
2018-11-06T16:56:57.966Z,73.48
2018-11-06T16:59:26.262Z,73.38
2018-11-06T17:01:54.585Z,73.59
2018-11-06T17:04:22.341Z,73.49
2018-11-06T17:06:51.262Z,74.23
2018-11-06T17:09:19.607Z,74.19
2018-11-06T17:11:48.048Z,74.37
2018-11-06T17:14:16.361Z,74.38
2018-11-06T17:16:44.105Z,74.77
2018-11-06T17:19:13.025Z,74.95
2018-11-06T17:21:41.373Z,75.56
2018-11-06T17:24:09.741Z,75.70
2018-11-06T17:26:38.319Z,75.75
2018-11-06T17:29:06.679Z,76.08
2018-11-06T17:31:34.436Z,76.04
2018-11-06T17:34:03.363Z,76.39
2018-11-06T17:36:31.202Z,76.43
2018-11-06T17:39:00.133Z,76.48
2018-11-06T17:41:27.964Z,77.01
2018-11-06T17:43:56.898Z,77.12
2018-11-06T17:46:25.369Z,76.99
2018-11-06T17:48:53.817Z,77.01
2018-11-06T17:51:22.392Z,77.62
2018-11-06T17:53:49.935Z,77.67
2018-11-06T17:56:18.933Z,77.78
2018-11-06T17:58:47.287Z,78.04
2018-11-06T18:01:15.072Z,78.50
2018-11-06T18:03:44.300Z,78.31
2018-11-06T18:06:12.358Z,78.26
2018-11-06T18:08:40.692Z,78.31
2018-11-06T18:11:09.265Z,78.61
2018-11-06T18:13:36.794Z,78.59
2018-11-06T18:16:05.721Z,78.84
2018-11-06T18:18:34.068Z,78.91
2018-11-06T18:21:02.410Z,79.14
2018-11-06T18:23:30.201Z,79.44
2018-11-06T18:25:59.205Z,79.54
2018-11-06T18:28:27.738Z,79.65
2018-11-06T18:30:55.845Z,79.72
2018-11-06T18:33:24.221Z,79.80
2018-11-06T18:35:52.562Z,79.66
2018-11-06T18:38:20.922Z,79.43
2018-11-06T18:40:49.252Z,79.22
2018-11-06T18:43:17.015Z,79.30
2018-11-06T18:45:46.259Z,79.43
2018-11-06T18:48:14.618Z,79.35
2018-11-06T18:50:42.963Z,79.14
2018-11-06T18:53:11.315Z,78.98
2018-11-06T18:55:39.665Z,78.99
2018-11-06T18:58:07.562Z,79.18
2018-11-06T19:00:35.913Z,79.36
2018-11-06T19:03:04.448Z,79.17
2018-11-06T19:05:33.508Z,79.18
2018-11-06T19:08:01.273Z,78.99
2018-11-06T19:10:30.459Z,78.94
2018-11-06T19:12:59.061Z,78.76
2018-11-06T19:15:26.829Z,78.67
2018-11-06T19:17:55.779Z,78.57
2018-11-06T19:20:23.685Z,78.43
2018-11-06T19:22:52.126Z,78.29
2018-11-06T19:25:22.424Z,78.25
2018-11-06T19:27:52.059Z,78.54
2018-11-06T19:30:20.488Z,78.25
2018-11-06T19:32:48.745Z,78.42
2018-11-06T19:35:17.165Z,78.65
2018-11-06T19:37:46.350Z,78.53
2018-11-06T19:40:15.324Z,78.22
2018-11-06T19:42:45.941Z,78.18
2018-11-06T19:45:20.135Z,78.22
2018-11-06T19:47:49.596Z,78.21
2018-11-06T19:50:22.260Z,78.54
2018-11-06T19:52:52.595Z,78.53
2018-11-06T19:55:21.553Z,78.43
2018-11-06T19:57:49.658Z,78.23
2018-11-06T20:00:18.618Z,77.92
2018-11-06T20:02:50.344Z,77.50
2018-11-06T20:05:19.225Z,77.32
2018-11-06T20:07:48.523Z,77.06
2018-11-06T20:10:16.803Z,76.66
2018-11-06T20:12:45.389Z,76.34
2018-11-06T20:15:13.140Z,76.07
2018-11-06T20:17:42.092Z,75.65
2018-11-06T20:20:10.455Z,75.35
2018-11-06T20:22:38.946Z,75.19
2018-11-06T20:25:07.319Z,75.03
2018-11-06T20:27:35.685Z,74.79
2018-11-06T20:30:04.131Z,74.62
2018-11-06T20:32:32.443Z,74.29
2018-11-06T20:35:01.767Z,73.82
2018-11-06T20:37:29.193Z,73.55
2018-11-06T20:39:57.470Z,73.29
2018-11-06T20:42:25.879Z,72.96
2018-11-06T20:44:53.638Z,72.71
2018-11-06T20:47:22.568Z,72.48
2018-11-06T20:49:51.065Z,72.20
2018-11-06T20:52:19.296Z,72.00
2018-11-06T20:54:47.631Z,71.83
2018-11-06T20:57:15.435Z,71.58
2018-11-06T20:59:44.399Z,71.09
2018-11-06T21:02:12.107Z,70.96
2018-11-06T21:04:41.011Z,70.78
2018-11-06T21:07:09.339Z,70.65
2018-11-06T21:09:37.759Z,70.54
2018-11-06T21:12:06.105Z,70.31
2018-11-06T21:14:34.442Z,70.19
2018-11-06T21:17:03.008Z,70.01
2018-11-06T21:19:31.774Z,69.90
2018-11-06T21:22:00.151Z,69.75
2018-11-06T21:24:28.057Z,69.67
2018-11-06T21:26:56.558Z,69.66
2018-11-06T21:29:25.137Z,69.77
2018-11-06T21:31:53.947Z,70.03
2018-11-06T21:34:22.364Z,70.32
2018-11-06T21:36:50.755Z,70.63
2018-11-06T21:39:18.551Z,70.97
2018-11-06T21:41:46.990Z,71.17
2018-11-06T21:44:15.727Z,71.51
2018-11-06T21:46:43.985Z,71.99
2018-11-06T21:49:13.715Z,72.83
2018-11-06T21:51:42.162Z,72.37
2018-11-06T21:54:09.916Z,72.76
2018-11-06T21:56:38.966Z,72.97
2018-11-06T21:59:06.725Z,73.19
2018-11-06T22:01:35.667Z,73.36
2018-11-06T22:04:04.009Z,73.59
2018-11-06T22:06:32.380Z,73.77
2018-11-06T22:09:00.680Z,74.52
2018-11-06T22:11:29.137Z,74.82
2018-11-06T22:13:56.914Z,74.86
2018-11-06T22:16:25.810Z,75.28
2018-11-06T22:18:54.133Z,75.15
2018-11-06T22:21:22.482Z,75.27
2018-11-06T22:23:50.807Z,75.17
2018-11-06T22:26:18.886Z,75.14
2018-11-06T22:28:46.906Z,75.25
2018-11-06T22:31:15.824Z,75.27
2018-11-06T22:33:44.178Z,75.38
2018-11-06T22:36:12.500Z,75.63
2018-11-06T22:38:40.821Z,75.80
2018-11-06T22:41:08.569Z,76.21
2018-11-06T22:43:37.503Z,76.51
2018-11-06T22:46:05.232Z,76.74
2018-11-06T22:48:33.601Z,77.07
2018-11-06T22:51:01.939Z,77.55
2018-11-06T22:53:30.267Z,77.79
2018-11-06T22:55:59.176Z,77.96
2018-11-06T22:58:26.919Z,77.93
2018-11-06T23:00:55.830Z,77.95
2018-11-06T23:03:24.164Z,77.93
2018-11-06T23:05:52.446Z,78.48
2018-11-06T23:08:20.246Z,78.72
2018-11-06T23:10:49.076Z,78.93
2018-11-06T23:13:17.984Z,78.76
2018-11-06T23:15:45.732Z,79.06
2018-11-06T23:18:14.657Z,79.12
2018-11-06T23:20:42.417Z,79.11
2018-11-06T23:23:11.322Z,79.58
2018-11-06T23:25:39.654Z,79.29
2018-11-06T23:28:07.982Z,79.27
2018-11-06T23:30:35.739Z,79.61
2018-11-06T23:33:04.070Z,79.70
2018-11-06T23:35:33.043Z,79.97
2018-11-06T23:38:01.376Z,80.05
2018-11-06T23:40:29.120Z,79.99
2018-11-06T23:42:57.442Z,80.16
2018-11-06T23:45:25.777Z,80.21
2018-11-06T23:47:54.105Z,80.24
2018-11-06T23:50:23.017Z,80.47
2018-11-06T23:52:51.352Z,80.30
2018-11-06T23:55:19.681Z,80.16
2018-11-06T23:57:48.014Z,80.24
